sensor_id;sensor_type;location;lat;lon;timestamp;P1;durP1;ratioP1;P2;durP2;ratioP2
48522;SDS011;34315;50.150;11.070;2023-06-26T00:02:21;7.40;;;5.78;;
48522;SDS011;34315;50.150;11.070;2023-06-26T00:07:22;7.82;;;5.68;;
48522;SDS011;34315;50.150;11.070;2023-06-26T00:12:23;8.35;;;5.65;;
48522;SDS011;34315;50.150;11.070;2023-06-26T00:17:25;9.48;;;5.90;;
48522;SDS011;34315;50.150;11.070;2023-06-26T00:22:26;11.52;;;6.22;;
48522;SDS011;34315;50.150;11.070;2023-06-26T00:27:27;10.57;;;7.55;;
48522;SDS011;34315;50.150;11.070;2023-06-26T00:32:28;9.15;;;6.10;;
48522;SDS011;34315;50.150;11.070;2023-06-26T00:37:29;8.13;;;6.32;;
48522;SDS011;34315;50.150;11.070;2023-06-26T00:42:30;10.07;;;6.68;;
48522;SDS011;34315;50.150;11.070;2023-06-26T00:47:31;8.77;;;5.80;;
48522;SDS011;34315;50.150;11.070;2023-06-26T00:52:33;7.78;;;5.80;;
48522;SDS011;34315;50.150;11.070;2023-06-26T00:57:34;10.80;;;6.18;;
48522;SDS011;34315;50.150;11.070;2023-06-26T01:02:35;10.43;;;5.97;;
48522;SDS011;34315;50.150;11.070;2023-06-26T01:07:39;13.02;;;6.38;;
48522;SDS011;34315;50.150;11.070;2023-06-26T01:12:40;9.77;;;6.35;;
48522;SDS011;34315;50.150;11.070;2023-06-26T01:17:42;14.20;;;6.22;;
48522;SDS011;34315;50.150;11.070;2023-06-26T01:28:24;8.05;;;5.88;;
48522;SDS011;34315;50.150;11.070;2023-06-26T01:33:26;9.40;;;6.05;;
48522;SDS011;34315;50.150;11.070;2023-06-26T01:38:27;8.85;;;5.78;;
48522;SDS011;34315;50.150;11.070;2023-06-26T01:48:47;8.23;;;6.03;;
48522;SDS011;34315;50.150;11.070;2023-06-26T01:53:53;9.00;;;6.38;;
48522;SDS011;34315;50.150;11.070;2023-06-26T01:58:55;9.48;;;6.15;;
48522;SDS011;34315;50.150;11.070;2023-06-26T02:03:57;9.70;;;6.32;;
48522;SDS011;34315;50.150;11.070;2023-06-26T02:08:58;8.35;;;5.68;;
48522;SDS011;34315;50.150;11.070;2023-06-26T02:13:59;7.75;;;6.20;;
48522;SDS011;34315;50.150;11.070;2023-06-26T02:19:00;8.65;;;6.05;;
48522;SDS011;34315;50.150;11.070;2023-06-26T02:24:03;8.90;;;6.70;;
48522;SDS011;34315;50.150;11.070;2023-06-26T02:29:07;7.85;;;5.60;;
48522;SDS011;34315;50.150;11.070;2023-06-26T02:34:09;11.13;;;6.28;;
48522;SDS011;34315;50.150;11.070;2023-06-26T02:39:10;9.90;;;6.15;;
48522;SDS011;34315;50.150;11.070;2023-06-26T02:44:11;9.00;;;6.45;;
48522;SDS011;34315;50.150;11.070;2023-06-26T02:49:13;8.35;;;6.05;;
48522;SDS011;34315;50.150;11.070;2023-06-26T02:54:15;9.70;;;6.32;;
48522;SDS011;34315;50.150;11.070;2023-06-26T02:59:18;10.50;;;6.20;;
48522;SDS011;34315;50.150;11.070;2023-06-26T03:04:19;9.43;;;6.53;;
48522;SDS011;34315;50.150;11.070;2023-06-26T03:09:22;8.15;;;6.32;;
48522;SDS011;34315;50.150;11.070;2023-06-26T03:14:24;8.90;;;6.32;;
48522;SDS011;34315;50.150;11.070;2023-06-26T03:19:25;7.80;;;6.03;;
48522;SDS011;34315;50.150;11.070;2023-06-26T03:24:46;10.75;;;6.55;;
48522;SDS011;34315;50.150;11.070;2023-06-26T03:29:48;8.93;;;6.60;;
48522;SDS011;34315;50.150;11.070;2023-06-26T03:34:49;11.63;;;5.90;;
48522;SDS011;34315;50.150;11.070;2023-06-26T03:39:50;8.77;;;5.75;;
48522;SDS011;34315;50.150;11.070;2023-06-26T03:44:51;10.40;;;6.47;;
48522;SDS011;34315;50.150;11.070;2023-06-26T03:49:54;10.85;;;6.55;;
48522;SDS011;34315;50.150;11.070;2023-06-26T03:54:55;10.65;;;6.53;;
48522;SDS011;34315;50.150;11.070;2023-06-26T03:59:56;10.70;;;6.63;;
48522;SDS011;34315;50.150;11.070;2023-06-26T04:04:57;8.98;;;6.18;;
48522;SDS011;34315;50.150;11.070;2023-06-26T04:09:58;12.05;;;6.90;;
48522;SDS011;34315;50.150;11.070;2023-06-26T04:15:01;10.30;;;6.53;;
48522;SDS011;34315;50.150;11.070;2023-06-26T04:20:03;9.77;;;6.53;;
48522;SDS011;34315;50.150;11.070;2023-06-26T04:25:07;11.00;;;6.60;;
48522;SDS011;34315;50.150;11.070;2023-06-26T04:30:09;9.70;;;6.85;;
48522;SDS011;34315;50.150;11.070;2023-06-26T04:35:13;11.20;;;6.63;;
48522;SDS011;34315;50.150;11.070;2023-06-26T04:40:14;11.18;;;6.65;;
48522;SDS011;34315;50.150;11.070;2023-06-26T04:45:16;13.65;;;7.18;;
48522;SDS011;34315;50.150;11.070;2023-06-26T04:50:17;11.15;;;7.00;;
48522;SDS011;34315;50.150;11.070;2023-06-26T04:55:20;12.70;;;6.90;;
48522;SDS011;34315;50.150;11.070;2023-06-26T05:00:22;9.95;;;6.25;;
48522;SDS011;34315;50.150;11.070;2023-06-26T05:05:29;9.83;;;7.33;;
48522;SDS011;34315;50.150;11.070;2023-06-26T05:10:30;10.77;;;6.93;;
48522;SDS011;34315;50.150;11.070;2023-06-26T05:15:32;11.07;;;7.10;;
48522;SDS011;34315;50.150;11.070;2023-06-26T05:20:34;10.85;;;7.18;;
48522;SDS011;34315;50.150;11.070;2023-06-26T05:25:37;13.20;;;7.20;;
48522;SDS011;34315;50.150;11.070;2023-06-26T05:30:38;13.10;;;7.75;;
48522;SDS011;34315;50.150;11.070;2023-06-26T05:35:41;13.88;;;6.65;;
48522;SDS011;34315;50.150;11.070;2023-06-26T05:40:43;11.98;;;6.80;;
48522;SDS011;34315;50.150;11.070;2023-06-26T05:45:45;11.18;;;7.03;;
48522;SDS011;34315;50.150;11.070;2023-06-26T05:50:46;9.98;;;7.05;;
48522;SDS011;34315;50.150;11.070;2023-06-26T05:55:47;10.48;;;7.13;;
48522;SDS011;34315;50.150;11.070;2023-06-26T06:00:48;10.10;;;6.82;;
48522;SDS011;34315;50.150;11.070;2023-06-26T06:05:50;8.55;;;6.40;;
48522;SDS011;34315;50.150;11.070;2023-06-26T06:10:51;10.70;;;7.53;;
48522;SDS011;34315;50.150;11.070;2023-06-26T06:15:53;9.40;;;7.20;;
48522;SDS011;34315;50.150;11.070;2023-06-26T06:20:55;12.18;;;7.88;;
48522;SDS011;34315;50.150;11.070;2023-06-26T06:25:56;7.82;;;6.43;;
48522;SDS011;34315;50.150;11.070;2023-06-26T06:30:57;9.40;;;7.15;;
48522;SDS011;34315;50.150;11.070;2023-06-26T06:35:58;8.85;;;6.95;;
48522;SDS011;34315;50.150;11.070;2023-06-26T06:41:00;10.95;;;6.90;;
48522;SDS011;34315;50.150;11.070;2023-06-26T06:46:01;11.35;;;7.10;;
48522;SDS011;34315;50.150;11.070;2023-06-26T06:51:02;10.75;;;6.90;;
48522;SDS011;34315;50.150;11.070;2023-06-26T06:56:03;9.82;;;7.05;;
48522;SDS011;34315;50.150;11.070;2023-06-26T07:01:04;7.95;;;6.13;;
48522;SDS011;34315;50.150;11.070;2023-06-26T07:06:05;9.60;;;6.88;;
48522;SDS011;34315;50.150;11.070;2023-06-26T07:11:06;10.13;;;6.78;;
48522;SDS011;34315;50.150;11.070;2023-06-26T07:16:08;8.95;;;6.88;;
48522;SDS011;34315;50.150;11.070;2023-06-26T07:26:13;10.15;;;7.07;;
48522;SDS011;34315;50.150;11.070;2023-06-26T07:31:15;8.15;;;6.63;;
48522;SDS011;34315;50.150;11.070;2023-06-26T07:36:17;10.55;;;7.10;;
48522;SDS011;34315;50.150;11.070;2023-06-26T07:41:18;10.57;;;6.35;;
48522;SDS011;34315;50.150;11.070;2023-06-26T07:46:19;9.00;;;6.97;;
48522;SDS011;34315;50.150;11.070;2023-06-26T07:51:21;9.30;;;6.78;;
48522;SDS011;34315;50.150;11.070;2023-06-26T07:56:22;9.25;;;6.35;;
48522;SDS011;34315;50.150;11.070;2023-06-26T08:01:23;10.65;;;6.72;;
48522;SDS011;34315;50.150;11.070;2023-06-26T08:06:24;8.70;;;6.35;;
48522;SDS011;34315;50.150;11.070;2023-06-26T08:11:26;10.20;;;6.70;;
48522;SDS011;34315;50.150;11.070;2023-06-26T08:16:27;8.93;;;6.78;;
48522;SDS011;34315;50.150;11.070;2023-06-26T08:21:28;9.07;;;6.60;;
48522;SDS011;34315;50.150;11.070;2023-06-26T08:26:29;10.13;;;6.82;;
48522;SDS011;34315;50.150;11.070;2023-06-26T08:31:30;9.82;;;7.00;;
48522;SDS011;34315;50.150;11.070;2023-06-26T08:36:35;8.75;;;6.55;;
48522;SDS011;34315;50.150;11.070;2023-06-26T08:41:36;10.57;;;6.65;;
48522;SDS011;34315;50.150;11.070;2023-06-26T08:46:37;10.77;;;7.18;;
48522;SDS011;34315;50.150;11.070;2023-06-26T08:51:38;10.90;;;7.50;;
48522;SDS011;34315;50.150;11.070;2023-06-26T08:56:42;10.80;;;6.50;;
48522;SDS011;34315;50.150;11.070;2023-06-26T09:01:45;9.75;;;6.55;;
48522;SDS011;34315;50.150;11.070;2023-06-26T09:06:46;8.85;;;6.40;;
48522;SDS011;34315;50.150;11.070;2023-06-26T09:11:48;7.65;;;6.40;;
48522;SDS011;34315;50.150;11.070;2023-06-26T09:16:49;10.95;;;6.88;;
48522;SDS011;34315;50.150;11.070;2023-06-26T09:21:50;8.43;;;6.82;;
48522;SDS011;34315;50.150;11.070;2023-06-26T09:26:52;9.35;;;6.68;;
48522;SDS011;34315;50.150;11.070;2023-06-26T09:31:53;10.30;;;7.05;;
48522;SDS011;34315;50.150;11.070;2023-06-26T09:36:54;11.40;;;7.07;;
48522;SDS011;34315;50.150;11.070;2023-06-26T09:41:56;10.48;;;6.97;;
48522;SDS011;34315;50.150;11.070;2023-06-26T09:46:57;8.35;;;6.60;;
48522;SDS011;34315;50.150;11.070;2023-06-26T09:51:59;10.40;;;6.90;;
48522;SDS011;34315;50.150;11.070;2023-06-26T09:57:07;7.70;;;6.50;;
48522;SDS011;34315;50.150;11.070;2023-06-26T10:02:26;15.00;;;7.18;;
48522;SDS011;34315;50.150;11.070;2023-06-26T10:07:27;11.65;;;7.47;;
48522;SDS011;34315;50.150;11.070;2023-06-26T10:12:29;8.60;;;6.40;;
48522;SDS011;34315;50.150;11.070;2023-06-26T10:17:32;8.47;;;6.60;;
48522;SDS011;34315;50.150;11.070;2023-06-26T10:22:37;8.48;;;6.85;;
48522;SDS011;34315;50.150;11.070;2023-06-26T10:27:47;8.23;;;6.68;;
48522;SDS011;34315;50.150;11.070;2023-06-26T10:32:50;8.23;;;6.68;;
48522;SDS011;34315;50.150;11.070;2023-06-26T10:37:51;9.18;;;6.97;;
48522;SDS011;34315;50.150;11.070;2023-06-26T10:43:05;7.13;;;6.03;;
48522;SDS011;34315;50.150;11.070;2023-06-26T10:48:07;8.48;;;7.07;;
48522;SDS011;34315;50.150;11.070;2023-06-26T10:58:27;9.35;;;6.60;;
48522;SDS011;34315;50.150;11.070;2023-06-26T11:03:36;8.30;;;6.35;;
48522;SDS011;34315;50.150;11.070;2023-06-26T11:09:13;6.85;;;5.40;;
48522;SDS011;34315;50.150;11.070;2023-06-26T11:14:05;9.85;;;6.00;;
48522;SDS011;34315;50.150;11.070;2023-06-26T11:19:06;7.95;;;6.00;;
48522;SDS011;34315;50.150;11.070;2023-06-26T11:24:07;8.52;;;5.30;;
48522;SDS011;34315;50.150;11.070;2023-06-26T11:29:09;9.50;;;5.88;;
48522;SDS011;34315;50.150;11.070;2023-06-26T11:34:12;7.43;;;5.40;;
48522;SDS011;34315;50.150;11.070;2023-06-26T11:39:14;9.43;;;5.10;;
48522;SDS011;34315;50.150;11.070;2023-06-26T11:44:15;6.53;;;5.28;;
48522;SDS011;34315;50.150;11.070;2023-06-26T11:49:21;6.20;;;4.95;;
48522;SDS011;34315;50.150;11.070;2023-06-26T11:54:24;10.68;;;5.32;;
48522;SDS011;34315;50.150;11.070;2023-06-26T11:59:33;7.68;;;5.00;;
48522;SDS011;34315;50.150;11.070;2023-06-26T12:04:36;6.88;;;4.93;;
48522;SDS011;34315;50.150;11.070;2023-06-26T12:09:43;6.13;;;5.03;;
48522;SDS011;34315;50.150;11.070;2023-06-26T12:14:44;6.78;;;5.10;;
48522;SDS011;34315;50.150;11.070;2023-06-26T12:19:46;7.28;;;5.53;;
48522;SDS011;34315;50.150;11.070;2023-06-26T12:24:51;7.18;;;5.47;;
48522;SDS011;34315;50.150;11.070;2023-06-26T12:29:52;7.43;;;5.40;;
48522;SDS011;34315;50.150;11.070;2023-06-26T12:34:54;8.05;;;5.43;;
48522;SDS011;34315;50.150;11.070;2023-06-26T12:39:57;8.65;;;5.20;;
48522;SDS011;34315;50.150;11.070;2023-06-26T12:44:58;7.05;;;4.70;;
48522;SDS011;34315;50.150;11.070;2023-06-26T12:50:04;7.55;;;5.00;;
48522;SDS011;34315;50.150;11.070;2023-06-26T12:55:05;6.78;;;4.75;;
48522;SDS011;34315;50.150;11.070;2023-06-26T13:00:07;8.48;;;5.30;;
48522;SDS011;34315;50.150;11.070;2023-06-26T13:05:11;8.10;;;5.35;;
48522;SDS011;34315;50.150;11.070;2023-06-26T13:10:12;7.05;;;5.35;;
48522;SDS011;34315;50.150;11.070;2023-06-26T13:15:13;8.68;;;5.68;;
48522;SDS011;34315;50.150;11.070;2023-06-26T13:20:14;7.22;;;5.03;;
48522;SDS011;34315;50.150;11.070;2023-06-26T13:25:15;6.55;;;5.15;;
48522;SDS011;34315;50.150;11.070;2023-06-26T13:30:16;7.57;;;5.43;;
48522;SDS011;34315;50.150;11.070;2023-06-26T13:35:17;11.30;;;4.82;;
48522;SDS011;34315;50.150;11.070;2023-06-26T13:40:19;9.13;;;5.13;;
48522;SDS011;34315;50.150;11.070;2023-06-26T13:45:20;10.68;;;5.40;;
48522;SDS011;34315;50.150;11.070;2023-06-26T13:50:21;8.07;;;5.65;;
48522;SDS011;34315;50.150;11.070;2023-06-26T13:55:22;12.63;;;5.90;;
48522;SDS011;34315;50.150;11.070;2023-06-26T14:00:23;7.75;;;6.00;;
48522;SDS011;34315;50.150;11.070;2023-06-26T14:05:24;8.02;;;6.65;;
48522;SDS011;34315;50.150;11.070;2023-06-26T14:10:25;9.27;;;6.57;;
48522;SDS011;34315;50.150;11.070;2023-06-26T14:15:26;7.55;;;6.35;;
48522;SDS011;34315;50.150;11.070;2023-06-26T14:20:28;8.02;;;6.45;;
48522;SDS011;34315;50.150;11.070;2023-06-26T14:25:33;8.77;;;5.75;;
48522;SDS011;34315;50.150;11.070;2023-06-26T14:30:34;8.63;;;6.03;;
48522;SDS011;34315;50.150;11.070;2023-06-26T14:35:35;9.27;;;6.50;;
48522;SDS011;34315;50.150;11.070;2023-06-26T14:40:36;8.20;;;6.50;;
48522;SDS011;34315;50.150;11.070;2023-06-26T14:45:37;9.48;;;6.40;;
48522;SDS011;34315;50.150;11.070;2023-06-26T14:50:38;7.47;;;6.18;;
48522;SDS011;34315;50.150;11.070;2023-06-26T14:55:40;7.70;;;6.10;;
48522;SDS011;34315;50.150;11.070;2023-06-26T15:00:41;6.88;;;5.72;;
48522;SDS011;34315;50.150;11.070;2023-06-26T15:05:42;9.18;;;5.97;;
48522;SDS011;34315;50.150;11.070;2023-06-26T15:10:43;7.55;;;6.70;;
48522;SDS011;34315;50.150;11.070;2023-06-26T15:15:45;7.97;;;6.18;;
48522;SDS011;34315;50.150;11.070;2023-06-26T15:20:46;11.13;;;6.82;;
48522;SDS011;34315;50.150;11.070;2023-06-26T15:25:47;10.52;;;7.32;;
48522;SDS011;34315;50.150;11.070;2023-06-26T15:30:48;10.40;;;6.65;;
48522;SDS011;34315;50.150;11.070;2023-06-26T15:35:50;8.07;;;6.10;;
48522;SDS011;34315;50.150;11.070;2023-06-26T15:40:51;7.95;;;6.43;;
48522;SDS011;34315;50.150;11.070;2023-06-26T15:45:52;12.65;;;7.00;;
48522;SDS011;34315;50.150;11.070;2023-06-26T15:50:53;10.82;;;7.10;;
48522;SDS011;34315;50.150;11.070;2023-06-26T15:55:55;9.73;;;6.72;;
48522;SDS011;34315;50.150;11.070;2023-06-26T16:00:56;8.60;;;6.68;;
48522;SDS011;34315;50.150;11.070;2023-06-26T16:05:57;8.80;;;6.75;;
48522;SDS011;34315;50.150;11.070;2023-06-26T16:10:58;7.68;;;6.35;;
48522;SDS011;34315;50.150;11.070;2023-06-26T16:15:59;8.50;;;5.57;;
48522;SDS011;34315;50.150;11.070;2023-06-26T16:21:01;8.32;;;6.22;;
48522;SDS011;34315;50.150;11.070;2023-06-26T16:26:02;10.57;;;6.10;;
48522;SDS011;34315;50.150;11.070;2023-06-26T16:31:03;10.70;;;6.05;;
48522;SDS011;34315;50.150;11.070;2023-06-26T16:36:04;11.65;;;5.97;;
48522;SDS011;34315;50.150;11.070;2023-06-26T16:41:05;7.68;;;5.60;;
48522;SDS011;34315;50.150;11.070;2023-06-26T16:46:06;8.93;;;5.70;;
48522;SDS011;34315;50.150;11.070;2023-06-26T16:51:08;7.10;;;5.78;;
48522;SDS011;34315;50.150;11.070;2023-06-26T16:56:09;12.88;;;6.47;;
48522;SDS011;34315;50.150;11.070;2023-06-26T17:01:10;8.75;;;6.20;;
48522;SDS011;34315;50.150;11.070;2023-06-26T17:06:11;8.82;;;6.25;;
48522;SDS011;34315;50.150;11.070;2023-06-26T17:11:12;10.45;;;6.95;;
48522;SDS011;34315;50.150;11.070;2023-06-26T17:16:13;8.75;;;6.10;;
48522;SDS011;34315;50.150;11.070;2023-06-26T17:21:14;10.27;;;6.15;;
48522;SDS011;34315;50.150;11.070;2023-06-26T17:26:15;9.77;;;5.90;;
48522;SDS011;34315;50.150;11.070;2023-06-26T17:31:17;8.95;;;5.18;;
48522;SDS011;34315;50.150;11.070;2023-06-26T17:36:18;8.32;;;5.60;;
48522;SDS011;34315;50.150;11.070;2023-06-26T17:41:19;8.05;;;4.80;;
48522;SDS011;34315;50.150;11.070;2023-06-26T17:46:20;8.65;;;5.15;;
48522;SDS011;34315;50.150;11.070;2023-06-26T17:51:21;8.57;;;5.05;;
48522;SDS011;34315;50.150;11.070;2023-06-26T17:56:22;7.93;;;5.20;;
48522;SDS011;34315;50.150;11.070;2023-06-26T18:01:23;7.70;;;4.63;;
48522;SDS011;34315;50.150;11.070;2023-06-26T18:06:24;8.90;;;5.03;;
48522;SDS011;34315;50.150;11.070;2023-06-26T18:11:26;6.40;;;4.63;;
48522;SDS011;34315;50.150;11.070;2023-06-26T18:16:27;6.93;;;4.38;;
48522;SDS011;34315;50.150;11.070;2023-06-26T18:21:28;8.52;;;4.18;;
48522;SDS011;34315;50.150;11.070;2023-06-26T18:26:29;8.50;;;3.95;;
48522;SDS011;34315;50.150;11.070;2023-06-26T18:31:30;6.32;;;3.90;;
48522;SDS011;34315;50.150;11.070;2023-06-26T18:36:31;7.05;;;3.45;;
48522;SDS011;34315;50.150;11.070;2023-06-26T18:41:34;9.07;;;3.90;;
48522;SDS011;34315;50.150;11.070;2023-06-26T18:46:36;7.00;;;3.38;;
48522;SDS011;34315;50.150;11.070;2023-06-26T18:51:37;7.03;;;3.97;;
48522;SDS011;34315;50.150;11.070;2023-06-26T18:56:38;7.00;;;3.50;;
48522;SDS011;34315;50.150;11.070;2023-06-26T19:01:39;7.03;;;3.88;;
48522;SDS011;34315;50.150;11.070;2023-06-26T19:06:40;8.07;;;3.38;;
48522;SDS011;34315;50.150;11.070;2023-06-26T19:11:42;6.63;;;3.47;;
48522;SDS011;34315;50.150;11.070;2023-06-26T19:16:43;8.38;;;3.10;;
48522;SDS011;34315;50.150;11.070;2023-06-26T19:21:44;4.05;;;2.90;;
48522;SDS011;34315;50.150;11.070;2023-06-26T19:26:45;6.20;;;3.08;;
48522;SDS011;34315;50.150;11.070;2023-06-26T19:31:46;5.57;;;3.25;;
48522;SDS011;34315;50.150;11.070;2023-06-26T19:36:49;5.15;;;2.90;;
48522;SDS011;34315;50.150;11.070;2023-06-26T19:41:51;5.50;;;2.92;;
48522;SDS011;34315;50.150;11.070;2023-06-26T19:46:55;8.68;;;3.17;;
48522;SDS011;34315;50.150;11.070;2023-06-26T19:56:57;6.07;;;2.70;;
48522;SDS011;34315;50.150;11.070;2023-06-26T20:01:59;6.55;;;2.88;;
48522;SDS011;34315;50.150;11.070;2023-06-26T20:07:00;6.97;;;3.80;;
48522;SDS011;34315;50.150;11.070;2023-06-26T20:12:02;6.78;;;3.03;;
48522;SDS011;34315;50.150;11.070;2023-06-26T20:17:04;9.57;;;3.70;;
48522;SDS011;34315;50.150;11.070;2023-06-26T20:22:05;5.60;;;3.20;;
48522;SDS011;34315;50.150;11.070;2023-06-26T20:27:06;6.63;;;3.13;;
48522;SDS011;34315;50.150;11.070;2023-06-26T20:32:07;6.10;;;3.28;;
48522;SDS011;34315;50.150;11.070;2023-06-26T20:37:08;8.20;;;3.75;;
48522;SDS011;34315;50.150;11.070;2023-06-26T20:42:10;6.93;;;3.20;;
48522;SDS011;34315;50.150;11.070;2023-06-26T20:47:11;10.98;;;2.97;;
48522;SDS011;34315;50.150;11.070;2023-06-26T20:52:14;9.80;;;3.58;;
48522;SDS011;34315;50.150;11.070;2023-06-26T20:57:17;8.07;;;3.47;;
48522;SDS011;34315;50.150;11.070;2023-06-26T21:02:18;9.63;;;3.25;;
48522;SDS011;34315;50.150;11.070;2023-06-26T21:07:19;5.43;;;2.50;;
48522;SDS011;34315;50.150;11.070;2023-06-26T21:12:20;6.00;;;2.58;;
48522;SDS011;34315;50.150;11.070;2023-06-26T21:17:21;7.40;;;2.30;;
48522;SDS011;34315;50.150;11.070;2023-06-26T21:22:22;5.43;;;2.13;;
48522;SDS011;34315;50.150;11.070;2023-06-26T21:27:24;3.85;;;2.10;;
48522;SDS011;34315;50.150;11.070;2023-06-26T21:32:25;5.38;;;2.10;;
48522;SDS011;34315;50.150;11.070;2023-06-26T21:37:26;6.95;;;2.00;;
48522;SDS011;34315;50.150;11.070;2023-06-26T21:42:27;6.35;;;2.10;;
48522;SDS011;34315;50.150;11.070;2023-06-26T21:47:28;5.28;;;1.90;;
48522;SDS011;34315;50.150;11.070;2023-06-26T21:52:30;7.05;;;2.10;;
48522;SDS011;34315;50.150;11.070;2023-06-26T21:57:31;3.53;;;1.80;;
48522;SDS011;34315;50.150;11.070;2023-06-26T22:02:32;7.78;;;2.47;;
48522;SDS011;34315;50.150;11.070;2023-06-26T22:07:33;4.18;;;1.85;;
48522;SDS011;34315;50.150;11.070;2023-06-26T22:12:35;4.70;;;2.30;;
48522;SDS011;34315;50.150;11.070;2023-06-26T22:17:45;3.70;;;1.90;;
48522;SDS011;34315;50.150;11.070;2023-06-26T22:22:50;4.63;;;1.95;;
48522;SDS011;34315;50.150;11.070;2023-06-26T22:27:52;3.90;;;1.83;;
48522;SDS011;34315;50.150;11.070;2023-06-26T22:32:53;5.22;;;1.70;;
48522;SDS011;34315;50.150;11.070;2023-06-26T22:37:54;6.60;;;1.80;;
48522;SDS011;34315;50.150;11.070;2023-06-26T22:42:56;4.38;;;2.28;;
48522;SDS011;34315;50.150;11.070;2023-06-26T22:47:57;5.35;;;2.08;;
48522;SDS011;34315;50.150;11.070;2023-06-26T22:52:58;7.07;;;1.70;;
48522;SDS011;34315;50.150;11.070;2023-06-26T22:58:00;4.43;;;2.10;;
48522;SDS011;34315;50.150;11.070;2023-06-26T23:03:01;9.38;;;2.10;;
48522;SDS011;34315;50.150;11.070;2023-06-26T23:08:03;4.57;;;1.80;;
48522;SDS011;34315;50.150;11.070;2023-06-26T23:13:06;5.50;;;2.30;;
48522;SDS011;34315;50.150;11.070;2023-06-26T23:18:07;2.63;;;1.73;;
48522;SDS011;34315;50.150;11.070;2023-06-26T23:23:08;5.32;;;1.67;;
48522;SDS011;34315;50.150;11.070;2023-06-26T23:28:09;4.03;;;1.80;;
48522;SDS011;34315;50.150;11.070;2023-06-26T23:33:11;8.82;;;1.85;;
48522;SDS011;34315;50.150;11.070;2023-06-26T23:38:14;8.83;;;2.17;;
48522;SDS011;34315;50.150;11.070;2023-06-26T23:43:16;6.05;;;1.50;;
48522;SDS011;34315;50.150;11.070;2023-06-26T23:48:17;7.57;;;1.88;;
48522;SDS011;34315;50.150;11.070;2023-06-26T23:53:18;4.13;;;1.60;;
48522;SDS011;34315;50.150;11.070;2023-06-26T23:58:19;4.97;;;1.70;;
